sensor_id;sensor_type;location;lat;lon;timestamp;P1;durP1;ratioP1;P2;durP2;ratioP2
21162;SDS011;10739;52.198;20.908;2024-02-14T00:02:21;26.25;;;9.93;;
21162;SDS011;10739;52.198;20.908;2024-02-14T00:04:47;22.05;;;10.50;;
21162;SDS011;10739;52.198;20.908;2024-02-14T00:07:13;28.35;;;11.32;;
21162;SDS011;10739;52.198;20.908;2024-02-14T00:09:40;20.52;;;9.75;;
21162;SDS011;10739;52.198;20.908;2024-02-14T00:12:06;23.38;;;10.00;;
21162;SDS011;10739;52.198;20.908;2024-02-14T00:14:34;19.27;;;10.13;;
21162;SDS011;10739;52.198;20.908;2024-02-14T00:17:00;20.77;;;10.35;;
21162;SDS011;10739;52.198;20.908;2024-02-14T00:19:27;18.48;;;9.20;;
21162;SDS011;10739;52.198;20.908;2024-02-14T00:21:53;21.05;;;9.48;;
21162;SDS011;10739;52.198;20.908;2024-02-14T00:24:19;19.38;;;9.50;;
21162;SDS011;10739;52.198;20.908;2024-02-14T00:26:45;20.60;;;10.43;;
21162;SDS011;10739;52.198;20.908;2024-02-14T00:29:14;19.50;;;9.93;;
21162;SDS011;10739;52.198;20.908;2024-02-14T00:31:40;18.10;;;9.85;;
21162;SDS011;10739;52.198;20.908;2024-02-14T00:34:09;21.83;;;9.98;;
21162;SDS011;10739;52.198;20.908;2024-02-14T00:36:36;20.52;;;10.68;;
21162;SDS011;10739;52.198;20.908;2024-02-14T00:39:02;21.88;;;9.57;;
21162;SDS011;10739;52.198;20.908;2024-02-14T00:41:28;21.15;;;10.80;;
21162;SDS011;10739;52.198;20.908;2024-02-14T00:43:58;20.27;;;10.15;;
21162;SDS011;10739;52.198;20.908;2024-02-14T00:46:24;20.48;;;10.73;;
21162;SDS011;10739;52.198;20.908;2024-02-14T00:48:50;17.77;;;9.48;;
21162;SDS011;10739;52.198;20.908;2024-02-14T00:51:16;21.60;;;10.05;;
21162;SDS011;10739;52.198;20.908;2024-02-14T00:53:42;18.17;;;9.90;;
21162;SDS011;10739;52.198;20.908;2024-02-14T00:56:08;18.20;;;9.30;;
21162;SDS011;10739;52.198;20.908;2024-02-14T00:58:34;20.13;;;10.32;;
21162;SDS011;10739;52.198;20.908;2024-02-14T01:01:00;19.88;;;9.90;;
21162;SDS011;10739;52.198;20.908;2024-02-14T01:03:26;24.58;;;11.02;;
21162;SDS011;10739;52.198;20.908;2024-02-14T01:05:52;22.60;;;10.70;;
21162;SDS011;10739;52.198;20.908;2024-02-14T01:08:18;21.27;;;10.15;;
21162;SDS011;10739;52.198;20.908;2024-02-14T01:10:44;17.52;;;9.85;;
21162;SDS011;10739;52.198;20.908;2024-02-14T01:13:12;17.73;;;9.93;;
21162;SDS011;10739;52.198;20.908;2024-02-14T01:15:38;22.40;;;10.13;;
21162;SDS011;10739;52.198;20.908;2024-02-14T01:18:04;20.42;;;9.68;;
21162;SDS011;10739;52.198;20.908;2024-02-14T01:20:30;20.10;;;10.13;;
21162;SDS011;10739;52.198;20.908;2024-02-14T01:22:57;25.20;;;10.15;;
21162;SDS011;10739;52.198;20.908;2024-02-14T01:25:23;22.35;;;10.20;;
21162;SDS011;10739;52.198;20.908;2024-02-14T01:27:49;19.65;;;9.00;;
21162;SDS011;10739;52.198;20.908;2024-02-14T01:30:18;18.15;;;9.25;;
21162;SDS011;10739;52.198;20.908;2024-02-14T01:32:44;20.02;;;10.00;;
21162;SDS011;10739;52.198;20.908;2024-02-14T01:35:10;17.13;;;9.23;;
21162;SDS011;10739;52.198;20.908;2024-02-14T01:37:36;23.35;;;9.77;;
21162;SDS011;10739;52.198;20.908;2024-02-14T01:40:02;20.10;;;10.20;;
21162;SDS011;10739;52.198;20.908;2024-02-14T01:42:29;17.73;;;9.63;;
21162;SDS011;10739;52.198;20.908;2024-02-14T01:44:55;21.00;;;9.77;;
21162;SDS011;10739;52.198;20.908;2024-02-14T01:47:22;16.70;;;9.35;;
21162;SDS011;10739;52.198;20.908;2024-02-14T01:49:48;22.05;;;10.98;;
21162;SDS011;10739;52.198;20.908;2024-02-14T01:52:14;17.33;;;9.88;;
21162;SDS011;10739;52.198;20.908;2024-02-14T01:54:41;17.55;;;10.15;;
21162;SDS011;10739;52.198;20.908;2024-02-14T01:57:08;19.63;;;10.32;;
21162;SDS011;10739;52.198;20.908;2024-02-14T01:59:36;19.42;;;10.48;;
21162;SDS011;10739;52.198;20.908;2024-02-14T02:02:03;15.38;;;9.60;;
21162;SDS011;10739;52.198;20.908;2024-02-14T02:04:33;22.30;;;10.18;;
21162;SDS011;10739;52.198;20.908;2024-02-14T02:07:00;18.08;;;9.90;;
21162;SDS011;10739;52.198;20.908;2024-02-14T02:09:26;19.48;;;10.10;;
21162;SDS011;10739;52.198;20.908;2024-02-14T02:12:02;22.08;;;11.15;;
21162;SDS011;10739;52.198;20.908;2024-02-14T02:14:33;20.52;;;10.68;;
21162;SDS011;10739;52.198;20.908;2024-02-14T02:17:01;21.38;;;11.73;;
21162;SDS011;10739;52.198;20.908;2024-02-14T02:19:33;27.73;;;11.93;;
21162;SDS011;10739;52.198;20.908;2024-02-14T02:22:02;21.30;;;12.02;;
21162;SDS011;10739;52.198;20.908;2024-02-14T02:24:30;26.25;;;12.98;;
21162;SDS011;10739;52.198;20.908;2024-02-14T02:26:56;28.67;;;14.90;;
21162;SDS011;10739;52.198;20.908;2024-02-14T02:29:22;24.52;;;13.98;;
21162;SDS011;10739;52.198;20.908;2024-02-14T02:31:48;26.05;;;14.48;;
21162;SDS011;10739;52.198;20.908;2024-02-14T02:34:14;26.40;;;13.68;;
21162;SDS011;10739;52.198;20.908;2024-02-14T02:36:41;27.20;;;14.25;;
21162;SDS011;10739;52.198;20.908;2024-02-14T02:39:08;30.45;;;14.50;;
21162;SDS011;10739;52.198;20.908;2024-02-14T02:41:35;33.15;;;15.43;;
21162;SDS011;10739;52.198;20.908;2024-02-14T02:44:01;30.75;;;15.77;;
21162;SDS011;10739;52.198;20.908;2024-02-14T02:46:27;31.98;;;16.88;;
21162;SDS011;10739;52.198;20.908;2024-02-14T02:48:55;26.38;;;15.88;;
21162;SDS011;10739;52.198;20.908;2024-02-14T02:51:22;26.77;;;15.30;;
21162;SDS011;10739;52.198;20.908;2024-02-14T02:53:48;31.83;;;16.70;;
21162;SDS011;10739;52.198;20.908;2024-02-14T02:56:14;30.63;;;16.48;;
21162;SDS011;10739;52.198;20.908;2024-02-14T02:58:49;34.70;;;17.63;;
21162;SDS011;10739;52.198;20.908;2024-02-14T03:01:20;24.63;;;15.48;;
21162;SDS011;10739;52.198;20.908;2024-02-14T03:03:56;32.72;;;15.93;;
21162;SDS011;10739;52.198;20.908;2024-02-14T03:06:23;26.60;;;16.73;;
21162;SDS011;10739;52.198;20.908;2024-02-14T03:08:51;32.08;;;17.20;;
21162;SDS011;10739;52.198;20.908;2024-02-14T03:11:17;36.53;;;17.30;;
21162;SDS011;10739;52.198;20.908;2024-02-14T03:13:43;30.20;;;17.50;;
21162;SDS011;10739;52.198;20.908;2024-02-14T03:16:09;24.85;;;16.25;;
21162;SDS011;10739;52.198;20.908;2024-02-14T03:18:36;39.88;;;18.45;;
21162;SDS011;10739;52.198;20.908;2024-02-14T03:21:03;32.05;;;18.02;;
21162;SDS011;10739;52.198;20.908;2024-02-14T03:23:31;29.48;;;17.17;;
21162;SDS011;10739;52.198;20.908;2024-02-14T03:25:57;32.35;;;16.52;;
21162;SDS011;10739;52.198;20.908;2024-02-14T03:28:24;30.48;;;16.25;;
21162;SDS011;10739;52.198;20.908;2024-02-14T03:30:51;31.88;;;16.40;;
21162;SDS011;10739;52.198;20.908;2024-02-14T03:33:17;31.45;;;17.05;;
21162;SDS011;10739;52.198;20.908;2024-02-14T03:35:44;29.73;;;17.83;;
21162;SDS011;10739;52.198;20.908;2024-02-14T03:38:10;29.90;;;16.30;;
21162;SDS011;10739;52.198;20.908;2024-02-14T03:40:36;30.48;;;16.50;;
21162;SDS011;10739;52.198;20.908;2024-02-14T03:43:04;26.13;;;16.80;;
21162;SDS011;10739;52.198;20.908;2024-02-14T03:45:30;33.40;;;17.33;;
21162;SDS011;10739;52.198;20.908;2024-02-14T03:47:56;34.67;;;16.58;;
21162;SDS011;10739;52.198;20.908;2024-02-14T03:50:23;26.08;;;16.25;;
21162;SDS011;10739;52.198;20.908;2024-02-14T03:52:49;33.28;;;17.33;;
21162;SDS011;10739;52.198;20.908;2024-02-14T03:55:15;29.35;;;17.85;;
21162;SDS011;10739;52.198;20.908;2024-02-14T03:57:45;30.48;;;18.02;;
21162;SDS011;10739;52.198;20.908;2024-02-14T04:00:12;27.48;;;16.45;;
21162;SDS011;10739;52.198;20.908;2024-02-14T04:02:39;34.95;;;18.02;;
21162;SDS011;10739;52.198;20.908;2024-02-14T04:05:05;30.65;;;17.50;;
21162;SDS011;10739;52.198;20.908;2024-02-14T04:07:32;28.48;;;17.17;;
21162;SDS011;10739;52.198;20.908;2024-02-14T04:09:59;31.20;;;18.30;;
21162;SDS011;10739;52.198;20.908;2024-02-14T04:12:25;30.75;;;16.85;;
21162;SDS011;10739;52.198;20.908;2024-02-14T04:14:51;38.58;;;18.77;;
21162;SDS011;10739;52.198;20.908;2024-02-14T04:17:17;34.28;;;19.88;;
21162;SDS011;10739;52.198;20.908;2024-02-14T04:19:44;37.03;;;19.13;;
21162;SDS011;10739;52.198;20.908;2024-02-14T04:22:10;34.75;;;18.88;;
21162;SDS011;10739;52.198;20.908;2024-02-14T04:24:36;28.90;;;16.73;;
21162;SDS011;10739;52.198;20.908;2024-02-14T04:27:02;31.17;;;16.48;;
21162;SDS011;10739;52.198;20.908;2024-02-14T04:29:29;33.53;;;16.70;;
21162;SDS011;10739;52.198;20.908;2024-02-14T04:32:01;28.98;;;16.92;;
21162;SDS011;10739;52.198;20.908;2024-02-14T04:34:28;31.38;;;17.33;;
21162;SDS011;10739;52.198;20.908;2024-02-14T04:36:55;33.28;;;16.90;;
21162;SDS011;10739;52.198;20.908;2024-02-14T04:39:22;34.72;;;18.38;;
21162;SDS011;10739;52.198;20.908;2024-02-14T04:41:48;31.80;;;17.05;;
21162;SDS011;10739;52.198;20.908;2024-02-14T04:44:15;30.70;;;17.20;;
21162;SDS011;10739;52.198;20.908;2024-02-14T04:46:41;29.95;;;16.65;;
21162;SDS011;10739;52.198;20.908;2024-02-14T04:49:09;36.13;;;17.83;;
21162;SDS011;10739;52.198;20.908;2024-02-14T04:51:35;26.27;;;17.20;;
21162;SDS011;10739;52.198;20.908;2024-02-14T04:54:01;34.10;;;17.85;;
21162;SDS011;10739;52.198;20.908;2024-02-14T04:56:28;31.52;;;17.10;;
21162;SDS011;10739;52.198;20.908;2024-02-14T04:58:54;33.03;;;18.63;;
21162;SDS011;10739;52.198;20.908;2024-02-14T05:01:21;30.55;;;17.73;;
21162;SDS011;10739;52.198;20.908;2024-02-14T05:03:48;35.53;;;17.20;;
21162;SDS011;10739;52.198;20.908;2024-02-14T05:06:15;29.00;;;17.00;;
21162;SDS011;10739;52.198;20.908;2024-02-14T05:08:41;29.48;;;16.17;;
21162;SDS011;10739;52.198;20.908;2024-02-14T05:11:07;34.83;;;17.95;;
21162;SDS011;10739;52.198;20.908;2024-02-14T05:13:33;32.75;;;17.85;;
21162;SDS011;10739;52.198;20.908;2024-02-14T05:16:03;35.33;;;17.95;;
21162;SDS011;10739;52.198;20.908;2024-02-14T05:18:30;33.55;;;18.52;;
21162;SDS011;10739;52.198;20.908;2024-02-14T05:20:56;31.55;;;17.58;;
21162;SDS011;10739;52.198;20.908;2024-02-14T05:23:23;34.30;;;18.88;;
21162;SDS011;10739;52.198;20.908;2024-02-14T05:25:49;28.85;;;17.10;;
21162;SDS011;10739;52.198;20.908;2024-02-14T05:28:16;34.63;;;16.83;;
21162;SDS011;10739;52.198;20.908;2024-02-14T05:30:44;32.75;;;18.08;;
21162;SDS011;10739;52.198;20.908;2024-02-14T05:33:10;32.50;;;18.10;;
21162;SDS011;10739;52.198;20.908;2024-02-14T05:35:37;31.90;;;18.08;;
21162;SDS011;10739;52.198;20.908;2024-02-14T05:38:03;32.92;;;17.80;;
21162;SDS011;10739;52.198;20.908;2024-02-14T05:40:33;36.15;;;18.90;;
21162;SDS011;10739;52.198;20.908;2024-02-14T05:42:59;39.50;;;19.17;;
21162;SDS011;10739;52.198;20.908;2024-02-14T05:45:25;40.53;;;19.80;;
21162;SDS011;10739;52.198;20.908;2024-02-14T05:47:52;33.47;;;17.65;;
21162;SDS011;10739;52.198;20.908;2024-02-14T05:50:19;31.00;;;18.17;;
21162;SDS011;10739;52.198;20.908;2024-02-14T05:52:45;31.63;;;16.13;;
21162;SDS011;10739;52.198;20.908;2024-02-14T05:55:11;38.17;;;18.95;;
21162;SDS011;10739;52.198;20.908;2024-02-14T05:57:37;38.28;;;18.10;;
21162;SDS011;10739;52.198;20.908;2024-02-14T06:00:05;31.80;;;17.80;;
21162;SDS011;10739;52.198;20.908;2024-02-14T06:02:32;31.05;;;17.58;;
21162;SDS011;10739;52.198;20.908;2024-02-14T06:04:59;34.25;;;18.42;;
21162;SDS011;10739;52.198;20.908;2024-02-14T06:07:25;32.65;;;17.40;;
21162;SDS011;10739;52.198;20.908;2024-02-14T06:09:51;31.30;;;17.38;;
21162;SDS011;10739;52.198;20.908;2024-02-14T06:12:17;38.10;;;19.15;;
21162;SDS011;10739;52.198;20.908;2024-02-14T06:14:43;32.22;;;15.52;;
21162;SDS011;10739;52.198;20.908;2024-02-14T06:17:09;26.00;;;15.30;;
21162;SDS011;10739;52.198;20.908;2024-02-14T06:19:35;30.35;;;16.60;;
21162;SDS011;10739;52.198;20.908;2024-02-14T06:22:04;26.42;;;15.90;;
21162;SDS011;10739;52.198;20.908;2024-02-14T06:24:30;35.22;;;17.15;;
21162;SDS011;10739;52.198;20.908;2024-02-14T06:26:56;29.55;;;16.63;;
21162;SDS011;10739;52.198;20.908;2024-02-14T06:29:23;29.25;;;15.10;;
21162;SDS011;10739;52.198;20.908;2024-02-14T06:31:49;32.28;;;16.48;;
21162;SDS011;10739;52.198;20.908;2024-02-14T06:34:16;28.58;;;16.15;;
21162;SDS011;10739;52.198;20.908;2024-02-14T06:36:42;27.55;;;15.43;;
21162;SDS011;10739;52.198;20.908;2024-02-14T06:39:08;30.30;;;16.35;;
21162;SDS011;10739;52.198;20.908;2024-02-14T06:41:34;26.67;;;16.60;;
21162;SDS011;10739;52.198;20.908;2024-02-14T06:44:00;27.45;;;15.98;;
21162;SDS011;10739;52.198;20.908;2024-02-14T06:46:26;26.58;;;15.82;;
21162;SDS011;10739;52.198;20.908;2024-02-14T06:48:52;33.78;;;15.73;;
21162;SDS011;10739;52.198;20.908;2024-02-14T06:51:19;27.73;;;15.25;;
21162;SDS011;10739;52.198;20.908;2024-02-14T06:53:45;28.00;;;14.68;;
21162;SDS011;10739;52.198;20.908;2024-02-14T06:56:11;27.92;;;14.48;;
21162;SDS011;10739;52.198;20.908;2024-02-14T06:58:37;27.13;;;15.85;;
21162;SDS011;10739;52.198;20.908;2024-02-14T07:01:04;31.38;;;15.20;;
21162;SDS011;10739;52.198;20.908;2024-02-14T07:03:30;27.00;;;14.93;;
21162;SDS011;10739;52.198;20.908;2024-02-14T07:05:56;25.75;;;15.05;;
21162;SDS011;10739;52.198;20.908;2024-02-14T07:08:22;27.40;;;14.25;;
21162;SDS011;10739;52.198;20.908;2024-02-14T07:10:51;26.85;;;15.05;;
21162;SDS011;10739;52.198;20.908;2024-02-14T07:13:17;26.88;;;14.32;;
21162;SDS011;10739;52.198;20.908;2024-02-14T07:15:43;30.15;;;14.57;;
21162;SDS011;10739;52.198;20.908;2024-02-14T07:18:10;30.75;;;13.75;;
21162;SDS011;10739;52.198;20.908;2024-02-14T07:20:36;31.00;;;15.55;;
21162;SDS011;10739;52.198;20.908;2024-02-14T07:23:03;26.10;;;14.77;;
21162;SDS011;10739;52.198;20.908;2024-02-14T07:25:30;25.95;;;14.70;;
21162;SDS011;10739;52.198;20.908;2024-02-14T07:27:56;23.50;;;13.80;;
21162;SDS011;10739;52.198;20.908;2024-02-14T07:30:22;30.50;;;14.23;;
21162;SDS011;10739;52.198;20.908;2024-02-14T07:32:48;25.42;;;13.82;;
21162;SDS011;10739;52.198;20.908;2024-02-14T07:35:16;30.10;;;14.48;;
21162;SDS011;10739;52.198;20.908;2024-02-14T07:37:43;27.10;;;13.80;;
21162;SDS011;10739;52.198;20.908;2024-02-14T07:40:09;24.05;;;13.98;;
21162;SDS011;10739;52.198;20.908;2024-02-14T07:42:36;27.13;;;14.07;;
21162;SDS011;10739;52.198;20.908;2024-02-14T07:45:03;31.63;;;14.27;;
21162;SDS011;10739;52.198;20.908;2024-02-14T07:47:29;22.92;;;12.73;;
21162;SDS011;10739;52.198;20.908;2024-02-14T07:49:56;29.13;;;13.55;;
21162;SDS011;10739;52.198;20.908;2024-02-14T07:52:23;27.65;;;14.10;;
21162;SDS011;10739;52.198;20.908;2024-02-14T07:54:53;22.65;;;13.25;;
21162;SDS011;10739;52.198;20.908;2024-02-14T07:57:21;29.80;;;12.82;;
21162;SDS011;10739;52.198;20.908;2024-02-14T07:59:48;26.40;;;12.02;;
21162;SDS011;10739;52.198;20.908;2024-02-14T08:02:16;24.38;;;13.35;;
21162;SDS011;10739;52.198;20.908;2024-02-14T08:04:44;20.98;;;12.32;;
21162;SDS011;10739;52.198;20.908;2024-02-14T08:07:10;23.40;;;13.82;;
21162;SDS011;10739;52.198;20.908;2024-02-14T08:09:37;21.05;;;12.82;;
21162;SDS011;10739;52.198;20.908;2024-02-14T08:12:06;20.30;;;12.07;;
21162;SDS011;10739;52.198;20.908;2024-02-14T08:14:32;25.85;;;11.35;;
21162;SDS011;10739;52.198;20.908;2024-02-14T08:16:58;20.85;;;11.55;;
21162;SDS011;10739;52.198;20.908;2024-02-14T08:19:24;20.95;;;11.75;;
21162;SDS011;10739;52.198;20.908;2024-02-14T08:21:50;24.58;;;12.25;;
21162;SDS011;10739;52.198;20.908;2024-02-14T08:24:16;20.52;;;12.15;;
21162;SDS011;10739;52.198;20.908;2024-02-14T08:26:43;17.60;;;10.55;;
21162;SDS011;10739;52.198;20.908;2024-02-14T08:29:09;16.17;;;10.18;;
21162;SDS011;10739;52.198;20.908;2024-02-14T08:31:37;14.38;;;9.68;;
21162;SDS011;10739;52.198;20.908;2024-02-14T08:34:03;16.50;;;10.20;;
21162;SDS011;10739;52.198;20.908;2024-02-14T08:36:29;21.77;;;10.43;;
21162;SDS011;10739;52.198;20.908;2024-02-14T08:38:55;16.52;;;10.25;;
21162;SDS011;10739;52.198;20.908;2024-02-14T08:41:21;16.83;;;9.68;;
21162;SDS011;10739;52.198;20.908;2024-02-14T08:43:48;19.15;;;10.20;;
21162;SDS011;10739;52.198;20.908;2024-02-14T08:46:14;15.82;;;9.15;;
21162;SDS011;10739;52.198;20.908;2024-02-14T08:48:43;12.98;;;8.82;;
21162;SDS011;10739;52.198;20.908;2024-02-14T08:51:13;18.75;;;9.95;;
21162;SDS011;10739;52.198;20.908;2024-02-14T08:53:39;16.23;;;9.48;;
21162;SDS011;10739;52.198;20.908;2024-02-14T08:56:09;19.10;;;8.75;;
21162;SDS011;10739;52.198;20.908;2024-02-14T08:58:36;15.65;;;9.25;;
21162;SDS011;10739;52.198;20.908;2024-02-14T09:01:02;13.02;;;8.50;;
21162;SDS011;10739;52.198;20.908;2024-02-14T09:03:29;16.08;;;9.63;;
21162;SDS011;10739;52.198;20.908;2024-02-14T09:05:56;11.95;;;8.13;;
21162;SDS011;10739;52.198;20.908;2024-02-14T09:08:23;14.40;;;8.90;;
21162;SDS011;10739;52.198;20.908;2024-02-14T09:10:50;16.60;;;8.77;;
21162;SDS011;10739;52.198;20.908;2024-02-14T09:13:16;15.13;;;8.35;;
21162;SDS011;10739;52.198;20.908;2024-02-14T09:15:42;14.27;;;8.45;;
21162;SDS011;10739;52.198;20.908;2024-02-14T09:18:09;11.55;;;6.10;;
21162;SDS011;10739;52.198;20.908;2024-02-14T09:20:35;9.25;;;6.10;;
21162;SDS011;10739;52.198;20.908;2024-02-14T09:23:03;7.35;;;5.32;;
21162;SDS011;10739;52.198;20.908;2024-02-14T09:25:29;8.02;;;5.25;;
21162;SDS011;10739;52.198;20.908;2024-02-14T09:27:55;9.55;;;5.65;;
21162;SDS011;10739;52.198;20.908;2024-02-14T09:30:21;9.25;;;5.57;;
21162;SDS011;10739;52.198;20.908;2024-02-14T09:32:47;14.38;;;6.28;;
21162;SDS011;10739;52.198;20.908;2024-02-14T09:35:13;11.48;;;6.00;;
21162;SDS011;10739;52.198;20.908;2024-02-14T09:37:39;6.60;;;5.15;;
21162;SDS011;10739;52.198;20.908;2024-02-14T09:40:06;10.77;;;6.35;;
21162;SDS011;10739;52.198;20.908;2024-02-14T09:42:38;9.23;;;5.15;;
21162;SDS011;10739;52.198;20.908;2024-02-14T09:45:10;9.55;;;5.00;;
21162;SDS011;10739;52.198;20.908;2024-02-14T09:47:37;9.90;;;5.07;;
21162;SDS011;10739;52.198;20.908;2024-02-14T09:50:05;11.73;;;5.53;;
21162;SDS011;10739;52.198;20.908;2024-02-14T09:52:33;7.80;;;5.00;;
21162;SDS011;10739;52.198;20.908;2024-02-14T09:55:00;14.90;;;5.00;;
21162;SDS011;10739;52.198;20.908;2024-02-14T09:57:29;6.53;;;4.00;;
21162;SDS011;10739;52.198;20.908;2024-02-14T09:59:57;10.43;;;4.40;;
21162;SDS011;10739;52.198;20.908;2024-02-14T10:02:28;10.40;;;4.20;;
21162;SDS011;10739;52.198;20.908;2024-02-14T10:04:56;7.40;;;3.58;;
21162;SDS011;10739;52.198;20.908;2024-02-14T10:07:22;5.35;;;3.15;;
21162;SDS011;10739;52.198;20.908;2024-02-14T10:09:49;10.60;;;3.90;;
21162;SDS011;10739;52.198;20.908;2024-02-14T10:12:15;8.00;;;3.35;;
21162;SDS011;10739;52.198;20.908;2024-02-14T10:14:41;6.20;;;2.92;;
21162;SDS011;10739;52.198;20.908;2024-02-14T10:17:07;7.80;;;3.10;;
21162;SDS011;10739;52.198;20.908;2024-02-14T10:19:35;8.85;;;2.75;;
21162;SDS011;10739;52.198;20.908;2024-02-14T10:22:01;6.22;;;2.38;;
21162;SDS011;10739;52.198;20.908;2024-02-14T10:24:28;3.38;;;2.47;;
21162;SDS011;10739;52.198;20.908;2024-02-14T10:26:56;7.82;;;2.90;;
21162;SDS011;10739;52.198;20.908;2024-02-14T10:29:25;6.68;;;2.40;;
21162;SDS011;10739;52.198;20.908;2024-02-14T10:31:52;4.75;;;2.63;;
21162;SDS011;10739;52.198;20.908;2024-02-14T10:34:19;5.28;;;2.05;;
21162;SDS011;10739;52.198;20.908;2024-02-14T10:36:58;5.95;;;2.17;;
21162;SDS011;10739;52.198;20.908;2024-02-14T10:39:25;4.13;;;2.30;;
21162;SDS011;10739;52.198;20.908;2024-02-14T10:41:52;4.47;;;2.47;;
21162;SDS011;10739;52.198;20.908;2024-02-14T10:44:19;5.93;;;2.60;;
21162;SDS011;10739;52.198;20.908;2024-02-14T10:46:46;7.35;;;2.50;;
21162;SDS011;10739;52.198;20.908;2024-02-14T10:49:17;6.00;;;2.53;;
21162;SDS011;10739;52.198;20.908;2024-02-14T10:51:47;6.20;;;2.55;;
21162;SDS011;10739;52.198;20.908;2024-02-14T10:54:18;6.68;;;2.97;;
21162;SDS011;10739;52.198;20.908;2024-02-14T10:56:49;11.32;;;2.75;;
21162;SDS011;10739;52.198;20.908;2024-02-14T10:59:19;6.13;;;2.03;;
21162;SDS011;10739;52.198;20.908;2024-02-14T11:01:48;5.10;;;2.15;;
21162;SDS011;10739;52.198;20.908;2024-02-14T11:04:14;6.75;;;2.75;;
21162;SDS011;10739;52.198;20.908;2024-02-14T11:06:51;6.30;;;2.40;;
21162;SDS011;10739;52.198;20.908;2024-02-14T11:09:31;6.45;;;2.40;;
21162;SDS011;10739;52.198;20.908;2024-02-14T11:12:01;6.38;;;2.08;;
21162;SDS011;10739;52.198;20.908;2024-02-14T11:14:31;10.70;;;2.60;;
21162;SDS011;10739;52.198;20.908;2024-02-14T11:17:01;4.53;;;1.87;;
21162;SDS011;10739;52.198;20.908;2024-02-14T11:19:32;4.68;;;2.40;;
21162;SDS011;10739;52.198;20.908;2024-02-14T11:22:09;3.55;;;2.17;;
21162;SDS011;10739;52.198;20.908;2024-02-14T11:24:47;8.80;;;2.30;;
21162;SDS011;10739;52.198;20.908;2024-02-14T11:27:14;9.45;;;2.35;;
21162;SDS011;10739;52.198;20.908;2024-02-14T11:29:52;4.55;;;2.33;;
21162;SDS011;10739;52.198;20.908;2024-02-14T11:32:19;3.35;;;2.10;;
21162;SDS011;10739;52.198;20.908;2024-02-14T11:34:54;7.53;;;2.65;;
21162;SDS011;10739;52.198;20.908;2024-02-14T11:37:27;7.40;;;2.60;;
21162;SDS011;10739;52.198;20.908;2024-02-14T11:39:55;3.58;;;2.40;;
21162;SDS011;10739;52.198;20.908;2024-02-14T11:42:23;5.35;;;2.33;;
21162;SDS011;10739;52.198;20.908;2024-02-14T11:44:50;5.38;;;2.35;;
21162;SDS011;10739;52.198;20.908;2024-02-14T11:47:16;3.60;;;2.22;;
21162;SDS011;10739;52.198;20.908;2024-02-14T11:49:43;3.72;;;2.50;;
21162;SDS011;10739;52.198;20.908;2024-02-14T11:52:10;7.10;;;2.10;;
21162;SDS011;10739;52.198;20.908;2024-02-14T11:54:38;4.22;;;2.20;;
21162;SDS011;10739;52.198;20.908;2024-02-14T11:57:04;5.63;;;2.17;;
21162;SDS011;10739;52.198;20.908;2024-02-14T11:59:32;3.20;;;2.17;;
21162;SDS011;10739;52.198;20.908;2024-02-14T12:01:58;7.65;;;2.25;;
21162;SDS011;10739;52.198;20.908;2024-02-14T12:04:26;4.30;;;2.15;;
21162;SDS011;10739;52.198;20.908;2024-02-14T12:06:53;6.80;;;2.75;;
21162;SDS011;10739;52.198;20.908;2024-02-14T12:09:19;5.43;;;2.33;;
21162;SDS011;10739;52.198;20.908;2024-02-14T12:11:47;5.20;;;2.60;;
21162;SDS011;10739;52.198;20.908;2024-02-14T12:14:13;5.10;;;2.13;;
21162;SDS011;10739;52.198;20.908;2024-02-14T12:16:40;5.43;;;2.28;;
21162;SDS011;10739;52.198;20.908;2024-02-14T12:19:13;5.03;;;2.10;;
21162;SDS011;10739;52.198;20.908;2024-02-14T12:21:41;6.18;;;2.35;;
21162;SDS011;10739;52.198;20.908;2024-02-14T12:24:11;5.57;;;2.42;;
21162;SDS011;10739;52.198;20.908;2024-02-14T12:26:41;4.72;;;2.28;;
21162;SDS011;10739;52.198;20.908;2024-02-14T12:29:10;3.85;;;2.00;;
21162;SDS011;10739;52.198;20.908;2024-02-14T12:31:38;8.25;;;2.60;;
21162;SDS011;10739;52.198;20.908;2024-02-14T12:34:04;5.40;;;2.15;;
21162;SDS011;10739;52.198;20.908;2024-02-14T12:36:31;6.22;;;2.65;;
21162;SDS011;10739;52.198;20.908;2024-02-14T12:38:59;6.78;;;2.55;;
21162;SDS011;10739;52.198;20.908;2024-02-14T12:41:29;5.95;;;2.90;;
21162;SDS011;10739;52.198;20.908;2024-02-14T12:43:56;4.13;;;2.40;;
21162;SDS011;10739;52.198;20.908;2024-02-14T12:46:24;4.82;;;2.30;;
21162;SDS011;10739;52.198;20.908;2024-02-14T12:48:50;6.80;;;2.42;;
21162;SDS011;10739;52.198;20.908;2024-02-14T12:51:17;6.53;;;2.40;;
21162;SDS011;10739;52.198;20.908;2024-02-14T12:53:43;5.25;;;2.55;;
21162;SDS011;10739;52.198;20.908;2024-02-14T12:56:09;7.80;;;2.85;;
21162;SDS011;10739;52.198;20.908;2024-02-14T12:58:36;5.63;;;2.85;;
21162;SDS011;10739;52.198;20.908;2024-02-14T13:01:02;6.15;;;2.88;;
21162;SDS011;10739;52.198;20.908;2024-02-14T13:03:32;5.78;;;2.80;;
21162;SDS011;10739;52.198;20.908;2024-02-14T13:05:59;6.70;;;2.33;;
21162;SDS011;10739;52.198;20.908;2024-02-14T13:08:26;5.82;;;2.50;;
21162;SDS011;10739;52.198;20.908;2024-02-14T13:10:53;6.72;;;2.47;;
21162;SDS011;10739;52.198;20.908;2024-02-14T13:13:20;6.97;;;2.95;;
21162;SDS011;10739;52.198;20.908;2024-02-14T13:15:46;5.70;;;2.47;;
21162;SDS011;10739;52.198;20.908;2024-02-14T13:18:13;4.30;;;2.60;;
21162;SDS011;10739;52.198;20.908;2024-02-14T13:20:39;5.57;;;2.50;;
21162;SDS011;10739;52.198;20.908;2024-02-14T13:23:05;6.60;;;2.55;;
21162;SDS011;10739;52.198;20.908;2024-02-14T13:25:35;7.78;;;2.42;;
21162;SDS011;10739;52.198;20.908;2024-02-14T13:28:03;5.13;;;2.67;;
21162;SDS011;10739;52.198;20.908;2024-02-14T13:30:30;5.53;;;2.97;;
21162;SDS011;10739;52.198;20.908;2024-02-14T13:32:57;7.63;;;2.92;;
21162;SDS011;10739;52.198;20.908;2024-02-14T13:35:23;3.92;;;2.40;;
21162;SDS011;10739;52.198;20.908;2024-02-14T13:37:49;4.38;;;2.30;;
21162;SDS011;10739;52.198;20.908;2024-02-14T13:40:15;4.57;;;2.17;;
21162;SDS011;10739;52.198;20.908;2024-02-14T13:42:42;6.57;;;2.67;;
21162;SDS011;10739;52.198;20.908;2024-02-14T13:45:08;9.02;;;3.10;;
21162;SDS011;10739;52.198;20.908;2024-02-14T13:47:36;5.35;;;2.30;;
21162;SDS011;10739;52.198;20.908;2024-02-14T13:50:07;9.77;;;2.95;;
21162;SDS011;10739;52.198;20.908;2024-02-14T13:52:35;5.68;;;2.55;;
21162;SDS011;10739;52.198;20.908;2024-02-14T13:55:02;6.97;;;2.63;;
21162;SDS011;10739;52.198;20.908;2024-02-14T13:57:30;6.75;;;2.47;;
21162;SDS011;10739;52.198;20.908;2024-02-14T14:00:02;4.38;;;2.40;;
21162;SDS011;10739;52.198;20.908;2024-02-14T14:02:28;8.80;;;2.92;;
21162;SDS011;10739;52.198;20.908;2024-02-14T14:04:55;5.57;;;2.53;;
21162;SDS011;10739;52.198;20.908;2024-02-14T14:07:21;3.90;;;2.53;;
21162;SDS011;10739;52.198;20.908;2024-02-14T14:09:49;4.50;;;2.40;;
21162;SDS011;10739;52.198;20.908;2024-02-14T14:12:15;5.88;;;2.20;;
21162;SDS011;10739;52.198;20.908;2024-02-14T14:14:41;6.13;;;2.53;;
21162;SDS011;10739;52.198;20.908;2024-02-14T14:17:08;7.82;;;2.58;;
21162;SDS011;10739;52.198;20.908;2024-02-14T14:19:34;5.97;;;3.38;;